sensor_id;sensor_type;location;lat;lon;timestamp;P1;durP1;ratioP1;P2;durP2;ratioP2
63007;SDS011;49266;47.552;19.078;2022-11-06T00:01:19;10.35;;;7.32;;
63007;SDS011;49266;47.552;19.078;2022-11-06T00:06:04;11.35;;;7.45;;
63007;SDS011;49266;47.552;19.078;2022-11-06T00:11:07;9.68;;;6.68;;
63007;SDS011;49266;47.552;19.078;2022-11-06T00:15:47;9.38;;;6.82;;
63007;SDS011;49266;47.552;19.078;2022-11-06T00:20:27;9.52;;;7.15;;
63007;SDS011;49266;47.552;19.078;2022-11-06T00:25:08;10.30;;;7.13;;
63007;SDS011;49266;47.552;19.078;2022-11-06T00:29:48;9.32;;;6.95;;
63007;SDS011;49266;47.552;19.078;2022-11-06T00:34:28;10.55;;;7.70;;
63007;SDS011;49266;47.552;19.078;2022-11-06T00:39:09;11.93;;;8.15;;
63007;SDS011;49266;47.552;19.078;2022-11-06T00:43:51;12.35;;;7.47;;
63007;SDS011;49266;47.552;19.078;2022-11-06T00:48:32;11.05;;;6.85;;
63007;SDS011;49266;47.552;19.078;2022-11-06T00:53:12;8.35;;;6.15;;
63007;SDS011;49266;47.552;19.078;2022-11-06T00:57:52;6.70;;;5.20;;
63007;SDS011;49266;47.552;19.078;2022-11-06T01:02:32;9.25;;;5.50;;
63007;SDS011;49266;47.552;19.078;2022-11-06T01:07:12;8.80;;;4.90;;
63007;SDS011;49266;47.552;19.078;2022-11-06T01:11:56;7.13;;;5.00;;
63007;SDS011;49266;47.552;19.078;2022-11-06T01:16:37;8.15;;;5.65;;
63007;SDS011;49266;47.552;19.078;2022-11-06T01:21:22;7.55;;;6.03;;
63007;SDS011;49266;47.552;19.078;2022-11-06T01:26:03;10.00;;;6.38;;
63007;SDS011;49266;47.552;19.078;2022-11-06T01:30:43;10.38;;;7.28;;
63007;SDS011;49266;47.552;19.078;2022-11-06T01:35:23;13.60;;;7.70;;
63007;SDS011;49266;47.552;19.078;2022-11-06T01:40:04;10.70;;;7.90;;
63007;SDS011;49266;47.552;19.078;2022-11-06T01:49:43;10.70;;;7.18;;
63007;SDS011;49266;47.552;19.078;2022-11-06T01:54:24;11.32;;;7.38;;
63007;SDS011;49266;47.552;19.078;2022-11-06T01:59:06;12.70;;;6.85;;
63007;SDS011;49266;47.552;19.078;2022-11-06T02:04:09;9.15;;;6.00;;
63007;SDS011;49266;47.552;19.078;2022-11-06T02:08:47;7.95;;;5.30;;
63007;SDS011;49266;47.552;19.078;2022-11-06T02:27:50;8.00;;;4.70;;
63007;SDS011;49266;47.552;19.078;2022-11-06T02:32:33;6.55;;;4.85;;
63007;SDS011;49266;47.552;19.078;2022-11-06T02:37:18;10.02;;;5.60;;
63007;SDS011;49266;47.552;19.078;2022-11-06T02:42:00;9.07;;;6.28;;
63007;SDS011;49266;47.552;19.078;2022-11-06T02:46:42;8.90;;;5.80;;
63007;SDS011;49266;47.552;19.078;2022-11-06T02:51:25;8.90;;;6.18;;
63007;SDS011;49266;47.552;19.078;2022-11-06T02:56:08;8.50;;;4.95;;
63007;SDS011;49266;47.552;19.078;2022-11-06T03:01:00;10.75;;;6.63;;
63007;SDS011;49266;47.552;19.078;2022-11-06T03:05:43;11.30;;;7.22;;
63007;SDS011;49266;47.552;19.078;2022-11-06T03:10:25;10.23;;;7.00;;
63007;SDS011;49266;47.552;19.078;2022-11-06T03:15:23;10.18;;;6.43;;
63007;SDS011;49266;47.552;19.078;2022-11-06T03:20:17;10.57;;;7.13;;
63007;SDS011;49266;47.552;19.078;2022-11-06T03:29:47;11.43;;;7.22;;
63007;SDS011;49266;47.552;19.078;2022-11-06T03:34:29;13.82;;;8.68;;
63007;SDS011;49266;47.552;19.078;2022-11-06T03:39:15;13.52;;;8.70;;
63007;SDS011;49266;47.552;19.078;2022-11-06T03:48:42;15.75;;;8.32;;
63007;SDS011;49266;47.552;19.078;2022-11-06T03:53:26;11.75;;;8.13;;
63007;SDS011;49266;47.552;19.078;2022-11-06T03:58:09;13.23;;;8.57;;
63007;SDS011;49266;47.552;19.078;2022-11-06T04:02:52;11.45;;;7.97;;
63007;SDS011;49266;47.552;19.078;2022-11-06T04:07:44;11.93;;;8.48;;
63007;SDS011;49266;47.552;19.078;2022-11-06T04:12:44;15.13;;;9.18;;
63007;SDS011;49266;47.552;19.078;2022-11-06T04:17:43;13.52;;;9.05;;
63007;SDS011;49266;47.552;19.078;2022-11-06T04:27:29;17.25;;;9.85;;
63007;SDS011;49266;47.552;19.078;2022-11-06T04:37:23;15.70;;;10.40;;
63007;SDS011;49266;47.552;19.078;2022-11-06T04:42:05;16.13;;;10.68;;
63007;SDS011;49266;47.552;19.078;2022-11-06T04:46:52;15.60;;;10.75;;
63007;SDS011;49266;47.552;19.078;2022-11-06T04:51:34;15.57;;;10.32;;
63007;SDS011;49266;47.552;19.078;2022-11-06T04:56:20;15.50;;;10.07;;
63007;SDS011;49266;47.552;19.078;2022-11-06T05:01:01;14.85;;;10.50;;
63007;SDS011;49266;47.552;19.078;2022-11-06T05:05:41;16.60;;;11.48;;
63007;SDS011;49266;47.552;19.078;2022-11-06T05:10:22;17.10;;;10.50;;
63007;SDS011;49266;47.552;19.078;2022-11-06T05:15:02;14.23;;;9.80;;
63007;SDS011;49266;47.552;19.078;2022-11-06T05:19:42;15.82;;;9.93;;
63007;SDS011;49266;47.552;19.078;2022-11-06T05:24:22;16.23;;;10.07;;
63007;SDS011;49266;47.552;19.078;2022-11-06T05:29:03;14.98;;;10.13;;
63007;SDS011;49266;47.552;19.078;2022-11-06T05:33:43;15.93;;;10.18;;
63007;SDS011;49266;47.552;19.078;2022-11-06T05:38:23;16.13;;;10.05;;
63007;SDS011;49266;47.552;19.078;2022-11-06T05:43:03;14.85;;;10.38;;
63007;SDS011;49266;47.552;19.078;2022-11-06T05:47:43;15.30;;;10.45;;
63007;SDS011;49266;47.552;19.078;2022-11-06T05:52:23;14.63;;;10.20;;
63007;SDS011;49266;47.552;19.078;2022-11-06T05:57:04;17.55;;;11.75;;
63007;SDS011;49266;47.552;19.078;2022-11-06T06:01:44;15.93;;;11.23;;
63007;SDS011;49266;47.552;19.078;2022-11-06T06:06:24;16.27;;;10.70;;
63007;SDS011;49266;47.552;19.078;2022-11-06T06:11:05;17.80;;;11.73;;
63007;SDS011;49266;47.552;19.078;2022-11-06T06:15:46;18.15;;;12.40;;
63007;SDS011;49266;47.552;19.078;2022-11-06T06:20:26;19.55;;;12.30;;
63007;SDS011;49266;47.552;19.078;2022-11-06T06:25:06;18.88;;;11.93;;
63007;SDS011;49266;47.552;19.078;2022-11-06T06:29:46;16.83;;;11.90;;
63007;SDS011;49266;47.552;19.078;2022-11-06T06:34:27;15.87;;;11.20;;
63007;SDS011;49266;47.552;19.078;2022-11-06T06:39:07;19.33;;;13.05;;
63007;SDS011;49266;47.552;19.078;2022-11-06T06:43:47;17.95;;;11.20;;
63007;SDS011;49266;47.552;19.078;2022-11-06T06:48:28;19.02;;;12.38;;
63007;SDS011;49266;47.552;19.078;2022-11-06T06:53:08;19.90;;;13.27;;
63007;SDS011;49266;47.552;19.078;2022-11-06T06:57:54;18.35;;;13.43;;
63007;SDS011;49266;47.552;19.078;2022-11-06T07:02:34;20.48;;;13.50;;
63007;SDS011;49266;47.552;19.078;2022-11-06T07:07:14;22.48;;;13.95;;
63007;SDS011;49266;47.552;19.078;2022-11-06T07:11:54;20.30;;;13.20;;
63007;SDS011;49266;47.552;19.078;2022-11-06T07:16:34;20.70;;;13.93;;
63007;SDS011;49266;47.552;19.078;2022-11-06T07:21:14;25.27;;;16.52;;
63007;SDS011;49266;47.552;19.078;2022-11-06T07:25:55;22.88;;;14.10;;
63007;SDS011;49266;47.552;19.078;2022-11-06T07:30:35;21.10;;;14.95;;
63007;SDS011;49266;47.552;19.078;2022-11-06T07:35:15;24.58;;;16.27;;
63007;SDS011;49266;47.552;19.078;2022-11-06T07:39:55;24.88;;;16.27;;
63007;SDS011;49266;47.552;19.078;2022-11-06T07:44:35;23.55;;;15.80;;
63007;SDS011;49266;47.552;19.078;2022-11-06T07:49:16;25.60;;;17.17;;
63007;SDS011;49266;47.552;19.078;2022-11-06T07:53:56;22.35;;;15.85;;
63007;SDS011;49266;47.552;19.078;2022-11-06T07:58:36;24.00;;;15.07;;
63007;SDS011;49266;47.552;19.078;2022-11-06T08:03:18;22.30;;;14.43;;
63007;SDS011;49266;47.552;19.078;2022-11-06T08:07:58;23.48;;;14.63;;
63007;SDS011;49266;47.552;19.078;2022-11-06T08:12:38;22.60;;;14.90;;
63007;SDS011;49266;47.552;19.078;2022-11-06T08:17:18;23.20;;;15.07;;
63007;SDS011;49266;47.552;19.078;2022-11-06T08:21:59;20.73;;;14.82;;
63007;SDS011;49266;47.552;19.078;2022-11-06T08:26:39;21.30;;;13.88;;
63007;SDS011;49266;47.552;19.078;2022-11-06T08:31:19;21.23;;;13.02;;
63007;SDS011;49266;47.552;19.078;2022-11-06T08:36:00;19.45;;;13.23;;
63007;SDS011;49266;47.552;19.078;2022-11-06T08:40:41;21.77;;;13.82;;
63007;SDS011;49266;47.552;19.078;2022-11-06T08:45:21;22.17;;;14.63;;
63007;SDS011;49266;47.552;19.078;2022-11-06T08:50:01;24.70;;;15.80;;
63007;SDS011;49266;47.552;19.078;2022-11-06T08:54:42;23.02;;;15.75;;
63007;SDS011;49266;47.552;19.078;2022-11-06T08:59:22;22.88;;;15.40;;
63007;SDS011;49266;47.552;19.078;2022-11-06T09:04:02;22.10;;;15.27;;
63007;SDS011;49266;47.552;19.078;2022-11-06T09:08:43;27.00;;;15.20;;
63007;SDS011;49266;47.552;19.078;2022-11-06T09:13:23;22.55;;;15.65;;
63007;SDS011;49266;47.552;19.078;2022-11-06T09:18:03;22.23;;;15.75;;
63007;SDS011;49266;47.552;19.078;2022-11-06T09:22:43;23.10;;;16.13;;
63007;SDS011;49266;47.552;19.078;2022-11-06T09:27:24;20.25;;;14.70;;
63007;SDS011;49266;47.552;19.078;2022-11-06T09:32:04;22.38;;;14.27;;
63007;SDS011;49266;47.552;19.078;2022-11-06T09:36:44;20.55;;;14.75;;
63007;SDS011;49266;47.552;19.078;2022-11-06T09:46:24;19.80;;;13.80;;
63007;SDS011;49266;47.552;19.078;2022-11-06T09:55:45;19.73;;;12.85;;
63007;SDS011;49266;47.552;19.078;2022-11-06T10:00:26;17.17;;;12.18;;
63007;SDS011;49266;47.552;19.078;2022-11-06T10:09:47;17.05;;;12.40;;
63007;SDS011;49266;47.552;19.078;2022-11-06T10:14:35;16.58;;;11.85;;
63007;SDS011;49266;47.552;19.078;2022-11-06T10:19:32;15.45;;;11.95;;
63007;SDS011;49266;47.552;19.078;2022-11-06T10:24:22;15.63;;;12.07;;
63007;SDS011;49266;47.552;19.078;2022-11-06T10:38:27;15.88;;;12.43;;
63007;SDS011;49266;47.552;19.078;2022-11-06T10:43:11;16.75;;;12.82;;
63007;SDS011;49266;47.552;19.078;2022-11-06T10:47:55;16.77;;;12.57;;
63007;SDS011;49266;47.552;19.078;2022-11-06T10:52:52;18.58;;;12.85;;
63007;SDS011;49266;47.552;19.078;2022-11-06T10:57:42;16.63;;;11.57;;
63007;SDS011;49266;47.552;19.078;2022-11-06T11:02:27;17.55;;;11.75;;
63007;SDS011;49266;47.552;19.078;2022-11-06T11:07:12;16.42;;;11.55;;
63007;SDS011;49266;47.552;19.078;2022-11-06T11:11:53;15.35;;;10.15;;
63007;SDS011;49266;47.552;19.078;2022-11-06T11:16:34;13.20;;;10.27;;
63007;SDS011;49266;47.552;19.078;2022-11-06T11:31:03;11.38;;;8.20;;
63007;SDS011;49266;47.552;19.078;2022-11-06T11:35:46;12.50;;;8.10;;
63007;SDS011;49266;47.552;19.078;2022-11-06T11:40:32;8.80;;;6.40;;
63007;SDS011;49266;47.552;19.078;2022-11-06T11:45:16;6.88;;;5.20;;
63007;SDS011;49266;47.552;19.078;2022-11-06T11:49:56;6.25;;;4.50;;
63007;SDS011;49266;47.552;19.078;2022-11-06T11:54:36;6.22;;;4.80;;
63007;SDS011;49266;47.552;19.078;2022-11-06T11:59:18;5.88;;;4.22;;
63007;SDS011;49266;47.552;19.078;2022-11-06T12:03:59;6.00;;;4.05;;
63007;SDS011;49266;47.552;19.078;2022-11-06T12:08:44;6.60;;;4.47;;
63007;SDS011;49266;47.552;19.078;2022-11-06T12:13:25;7.13;;;4.70;;
63007;SDS011;49266;47.552;19.078;2022-11-06T12:18:08;11.00;;;7.82;;
63007;SDS011;49266;47.552;19.078;2022-11-06T12:22:49;12.90;;;9.27;;
63007;SDS011;49266;47.552;19.078;2022-11-06T12:27:32;13.73;;;9.55;;
63007;SDS011;49266;47.552;19.078;2022-11-06T12:32:18;11.05;;;8.05;;
63007;SDS011;49266;47.552;19.078;2022-11-06T12:41:41;11.40;;;8.73;;
63007;SDS011;49266;47.552;19.078;2022-11-06T12:51:32;10.30;;;8.15;;
63007;SDS011;49266;47.552;19.078;2022-11-06T13:29:28;10.70;;;7.88;;
63007;SDS011;49266;47.552;19.078;2022-11-06T13:34:21;13.13;;;9.52;;
63007;SDS011;49266;47.552;19.078;2022-11-06T13:39:08;11.82;;;8.98;;
63007;SDS011;49266;47.552;19.078;2022-11-06T13:44:03;13.50;;;9.20;;
63007;SDS011;49266;47.552;19.078;2022-11-06T13:48:47;13.55;;;9.77;;
63007;SDS011;49266;47.552;19.078;2022-11-06T13:53:33;12.90;;;10.20;;
63007;SDS011;49266;47.552;19.078;2022-11-06T14:07:54;14.23;;;10.13;;
63007;SDS011;49266;47.552;19.078;2022-11-06T14:12:35;13.85;;;9.52;;
63007;SDS011;49266;47.552;19.078;2022-11-06T14:26:48;13.30;;;9.75;;
63007;SDS011;49266;47.552;19.078;2022-11-06T14:36:32;12.10;;;9.27;;
63007;SDS011;49266;47.552;19.078;2022-11-06T14:46:15;13.25;;;9.45;;
63007;SDS011;49266;47.552;19.078;2022-11-06T14:50:56;13.45;;;9.68;;
63007;SDS011;49266;47.552;19.078;2022-11-06T14:55:39;14.93;;;10.45;;
63007;SDS011;49266;47.552;19.078;2022-11-06T15:05:16;16.27;;;10.32;;
63007;SDS011;49266;47.552;19.078;2022-11-06T15:09:57;17.20;;;11.63;;
63007;SDS011;49266;47.552;19.078;2022-11-06T15:19:18;19.83;;;13.68;;
63007;SDS011;49266;47.552;19.078;2022-11-06T15:24:03;20.23;;;13.85;;
63007;SDS011;49266;47.552;19.078;2022-11-06T15:29:01;22.92;;;16.45;;
63007;SDS011;49266;47.552;19.078;2022-11-06T15:33:50;23.42;;;16.13;;
63007;SDS011;49266;47.552;19.078;2022-11-06T15:38:40;24.73;;;17.17;;
63007;SDS011;49266;47.552;19.078;2022-11-06T15:48:03;30.53;;;21.40;;
63007;SDS011;49266;47.552;19.078;2022-11-06T15:52:44;26.20;;;18.90;;
63007;SDS011;49266;47.552;19.078;2022-11-06T15:57:25;27.50;;;19.20;;
63007;SDS011;49266;47.552;19.078;2022-11-06T16:02:14;34.53;;;19.80;;
63007;SDS011;49266;47.552;19.078;2022-11-06T16:06:54;35.60;;;21.00;;
63007;SDS011;49266;47.552;19.078;2022-11-06T16:11:36;33.53;;;22.00;;
63007;SDS011;49266;47.552;19.078;2022-11-06T16:16:36;31.67;;;20.90;;
63007;SDS011;49266;47.552;19.078;2022-11-06T16:21:21;34.05;;;21.65;;
63007;SDS011;49266;47.552;19.078;2022-11-06T16:26:13;33.50;;;22.63;;
63007;SDS011;49266;47.552;19.078;2022-11-06T16:31:03;32.38;;;21.88;;
63007;SDS011;49266;47.552;19.078;2022-11-06T16:35:44;34.47;;;22.75;;
63007;SDS011;49266;47.552;19.078;2022-11-06T16:45:23;38.63;;;23.55;;
63007;SDS011;49266;47.552;19.078;2022-11-06T16:50:03;35.35;;;22.30;;
63007;SDS011;49266;47.552;19.078;2022-11-06T16:55:05;36.80;;;23.35;;
63007;SDS011;49266;47.552;19.078;2022-11-06T17:00:46;36.45;;;22.20;;
63007;SDS011;49266;47.552;19.078;2022-11-06T17:09:47;39.83;;;22.48;;
63007;SDS011;49266;47.552;19.078;2022-11-06T17:14:28;38.42;;;23.13;;
63007;SDS011;49266;47.552;19.078;2022-11-06T17:19:09;37.13;;;23.80;;
63007;SDS011;49266;47.552;19.078;2022-11-06T17:23:50;41.30;;;24.75;;
63007;SDS011;49266;47.552;19.078;2022-11-06T17:28:31;36.28;;;23.38;;
63007;SDS011;49266;47.552;19.078;2022-11-06T17:33:11;37.83;;;24.33;;
63007;SDS011;49266;47.552;19.078;2022-11-06T17:37:51;40.78;;;25.55;;
63007;SDS011;49266;47.552;19.078;2022-11-06T17:42:32;40.55;;;24.20;;
63007;SDS011;49266;47.552;19.078;2022-11-06T17:47:12;37.05;;;22.98;;
63007;SDS011;49266;47.552;19.078;2022-11-06T17:51:52;41.22;;;24.35;;
63007;SDS011;49266;47.552;19.078;2022-11-06T17:56:37;41.90;;;24.98;;
63007;SDS011;49266;47.552;19.078;2022-11-06T18:01:17;39.95;;;24.58;;
63007;SDS011;49266;47.552;19.078;2022-11-06T18:05:57;38.15;;;25.15;;
63007;SDS011;49266;47.552;19.078;2022-11-06T18:10:38;40.78;;;25.55;;
63007;SDS011;49266;47.552;19.078;2022-11-06T18:15:18;43.13;;;27.45;;
63007;SDS011;49266;47.552;19.078;2022-11-06T18:19:58;43.47;;;26.35;;
63007;SDS011;49266;47.552;19.078;2022-11-06T18:24:38;44.88;;;26.70;;
63007;SDS011;49266;47.552;19.078;2022-11-06T18:29:19;51.83;;;30.67;;
63007;SDS011;49266;47.552;19.078;2022-11-06T18:34:00;55.97;;;35.28;;
63007;SDS011;49266;47.552;19.078;2022-11-06T18:38:41;51.80;;;34.30;;
63007;SDS011;49266;47.552;19.078;2022-11-06T18:43:22;49.67;;;32.78;;
63007;SDS011;49266;47.552;19.078;2022-11-06T18:48:02;52.80;;;32.47;;
63007;SDS011;49266;47.552;19.078;2022-11-06T18:52:42;52.80;;;30.67;;
63007;SDS011;49266;47.552;19.078;2022-11-06T18:57:22;52.53;;;33.08;;
63007;SDS011;49266;47.552;19.078;2022-11-06T19:02:03;54.42;;;34.15;;
63007;SDS011;49266;47.552;19.078;2022-11-06T19:06:44;53.00;;;32.70;;
63007;SDS011;49266;47.552;19.078;2022-11-06T19:11:24;53.42;;;33.67;;
63007;SDS011;49266;47.552;19.078;2022-11-06T19:16:04;57.03;;;34.40;;
63007;SDS011;49266;47.552;19.078;2022-11-06T19:20:45;52.92;;;34.75;;
63007;SDS011;49266;47.552;19.078;2022-11-06T19:25:25;53.58;;;32.60;;
63007;SDS011;49266;47.552;19.078;2022-11-06T19:30:05;48.30;;;32.10;;
63007;SDS011;49266;47.552;19.078;2022-11-06T19:34:46;59.22;;;35.88;;
63007;SDS011;49266;47.552;19.078;2022-11-06T19:39:26;50.83;;;32.58;;
63007;SDS011;49266;47.552;19.078;2022-11-06T19:44:07;59.65;;;36.10;;
63007;SDS011;49266;47.552;19.078;2022-11-06T19:48:47;52.97;;;33.25;;
63007;SDS011;49266;47.552;19.078;2022-11-06T19:53:27;56.60;;;35.67;;
63007;SDS011;49266;47.552;19.078;2022-11-06T19:58:07;52.38;;;34.75;;
63007;SDS011;49266;47.552;19.078;2022-11-06T20:02:47;61.47;;;34.88;;
63007;SDS011;49266;47.552;19.078;2022-11-06T20:07:28;62.03;;;38.38;;
63007;SDS011;49266;47.552;19.078;2022-11-06T20:12:09;57.17;;;34.90;;
63007;SDS011;49266;47.552;19.078;2022-11-06T20:16:52;53.20;;;33.90;;
63007;SDS011;49266;47.552;19.078;2022-11-06T20:21:32;51.03;;;32.75;;
63007;SDS011;49266;47.552;19.078;2022-11-06T20:26:13;63.97;;;36.40;;
63007;SDS011;49266;47.552;19.078;2022-11-06T20:30:53;58.03;;;35.03;;
63007;SDS011;49266;47.552;19.078;2022-11-06T20:35:34;56.38;;;34.10;;
63007;SDS011;49266;47.552;19.078;2022-11-06T20:40:16;54.80;;;34.70;;
63007;SDS011;49266;47.552;19.078;2022-11-06T20:44:56;58.10;;;35.88;;
63007;SDS011;49266;47.552;19.078;2022-11-06T20:49:37;56.53;;;35.40;;
63007;SDS011;49266;47.552;19.078;2022-11-06T20:54:17;70.38;;;37.30;;
63007;SDS011;49266;47.552;19.078;2022-11-06T20:58:57;71.57;;;38.65;;
63007;SDS011;49266;47.552;19.078;2022-11-06T21:03:38;72.90;;;37.95;;
63007;SDS011;49266;47.552;19.078;2022-11-06T21:08:18;71.75;;;38.65;;
63007;SDS011;49266;47.552;19.078;2022-11-06T21:12:58;75.32;;;37.78;;
63007;SDS011;49266;47.552;19.078;2022-11-06T21:17:41;66.57;;;38.58;;
63007;SDS011;49266;47.552;19.078;2022-11-06T21:22:22;91.25;;;39.88;;
63007;SDS011;49266;47.552;19.078;2022-11-06T21:27:02;71.10;;;39.25;;
63007;SDS011;49266;47.552;19.078;2022-11-06T21:31:42;69.60;;;38.40;;
63007;SDS011;49266;47.552;19.078;2022-11-06T21:36:25;80.18;;;40.55;;
63007;SDS011;49266;47.552;19.078;2022-11-06T21:41:06;78.93;;;40.90;;
63007;SDS011;49266;47.552;19.078;2022-11-06T21:45:46;70.25;;;38.90;;
63007;SDS011;49266;47.552;19.078;2022-11-06T21:50:26;64.63;;;36.30;;
63007;SDS011;49266;47.552;19.078;2022-11-06T21:55:07;57.83;;;34.65;;
63007;SDS011;49266;47.552;19.078;2022-11-06T22:00:07;53.13;;;34.75;;
63007;SDS011;49266;47.552;19.078;2022-11-06T22:04:47;55.20;;;36.67;;
63007;SDS011;49266;47.552;19.078;2022-11-06T22:09:27;52.67;;;35.78;;
63007;SDS011;49266;47.552;19.078;2022-11-06T22:14:10;47.42;;;33.63;;
63007;SDS011;49266;47.552;19.078;2022-11-06T22:18:50;51.08;;;33.15;;
63007;SDS011;49266;47.552;19.078;2022-11-06T22:23:30;45.03;;;31.45;;
63007;SDS011;49266;47.552;19.078;2022-11-06T22:28:11;46.88;;;30.80;;
63007;SDS011;49266;47.552;19.078;2022-11-06T22:32:51;45.20;;;29.30;;
63007;SDS011;49266;47.552;19.078;2022-11-06T22:37:31;41.40;;;29.02;;
63007;SDS011;49266;47.552;19.078;2022-11-06T22:42:11;53.63;;;31.45;;
63007;SDS011;49266;47.552;19.078;2022-11-06T22:46:51;42.40;;;28.75;;
63007;SDS011;49266;47.552;19.078;2022-11-06T22:51:32;47.28;;;29.25;;
63007;SDS011;49266;47.552;19.078;2022-11-06T22:56:12;47.67;;;31.38;;
63007;SDS011;49266;47.552;19.078;2022-11-06T23:00:53;43.78;;;30.48;;
63007;SDS011;49266;47.552;19.078;2022-11-06T23:05:36;42.25;;;28.58;;
63007;SDS011;49266;47.552;19.078;2022-11-06T23:10:17;44.25;;;29.80;;
63007;SDS011;49266;47.552;19.078;2022-11-06T23:15:07;42.40;;;29.27;;
63007;SDS011;49266;47.552;19.078;2022-11-06T23:19:48;42.42;;;29.10;;
63007;SDS011;49266;47.552;19.078;2022-11-06T23:24:28;37.38;;;28.00;;
63007;SDS011;49266;47.552;19.078;2022-11-06T23:29:08;38.00;;;27.27;;
63007;SDS011;49266;47.552;19.078;2022-11-06T23:33:48;39.55;;;27.92;;
63007;SDS011;49266;47.552;19.078;2022-11-06T23:38:29;37.35;;;26.58;;
63007;SDS011;49266;47.552;19.078;2022-11-06T23:43:09;36.13;;;25.48;;
63007;SDS011;49266;47.552;19.078;2022-11-06T23:47:49;41.15;;;25.92;;
63007;SDS011;49266;47.552;19.078;2022-11-06T23:52:29;36.47;;;25.77;;
63007;SDS011;49266;47.552;19.078;2022-11-06T23:57:10;36.90;;;25.27;;
